sensor_id;sensor_type;location;lat;lon;timestamp;pressure;altitude;pressure_sealevel;temperature;humidity
6565;BME280;3316;44.118;27.258;2022-12-18T00:00:45;101853.94;;;8.33;100.00
6565;BME280;3316;44.118;27.258;2022-12-18T00:03:12;101859.31;;;8.40;100.00
6565;BME280;3316;44.118;27.258;2022-12-18T00:05:48;101866.19;;;8.34;100.00
6565;BME280;3316;44.118;27.258;2022-12-18T00:08:14;101758.34;;;7.69;100.00
6565;BME280;3316;44.118;27.258;2022-12-18T00:10:40;101844.03;;;8.20;100.00
6565;BME280;3316;44.118;27.258;2022-12-18T00:13:05;101851.66;;;8.07;100.00
6565;BME280;3316;44.118;27.258;2022-12-18T00:15:33;101854.38;;;8.12;100.00
6565;BME280;3316;44.118;27.258;2022-12-18T00:17:59;101840.34;;;8.10;100.00
6565;BME280;3316;44.118;27.258;2022-12-18T00:20:24;101863.22;;;8.17;100.00
6565;BME280;3316;44.118;27.258;2022-12-18T00:22:52;101864.56;;;7.97;100.00
6565;BME280;3316;44.118;27.258;2022-12-18T00:25:17;101864.50;;;7.94;100.00
6565;BME280;3316;44.118;27.258;2022-12-18T00:27:43;101880.56;;;8.09;100.00
6565;BME280;3316;44.118;27.258;2022-12-18T00:30:09;101882.03;;;7.96;100.00
6565;BME280;3316;44.118;27.258;2022-12-18T00:32:34;101877.56;;;7.92;100.00
6565;BME280;3316;44.118;27.258;2022-12-18T00:35:00;101875.69;;;7.85;100.00
6565;BME280;3316;44.118;27.258;2022-12-18T00:37:25;101858.06;;;7.78;100.00
6565;BME280;3316;44.118;27.258;2022-12-18T00:39:50;101886.25;;;7.90;100.00
6565;BME280;3316;44.118;27.258;2022-12-18T00:42:16;101878.94;;;7.72;100.00
6565;BME280;3316;44.118;27.258;2022-12-18T00:45:00;101900.84;;;7.76;100.00
6565;BME280;3316;44.118;27.258;2022-12-18T00:47:25;101907.81;;;7.77;100.00
6565;BME280;3316;44.118;27.258;2022-12-18T00:49:50;101909.56;;;7.76;100.00
6565;BME280;3316;44.118;27.258;2022-12-18T00:52:16;101890.09;;;7.64;100.00
6565;BME280;3316;44.118;27.258;2022-12-18T00:54:41;101909.38;;;7.69;100.00
6565;BME280;3316;44.118;27.258;2022-12-18T00:57:07;101920.84;;;7.72;100.00
6565;BME280;3316;44.118;27.258;2022-12-18T00:59:32;101914.75;;;7.73;100.00
6565;BME280;3316;44.118;27.258;2022-12-18T01:01:57;101918.16;;;7.71;100.00
6565;BME280;3316;44.118;27.258;2022-12-18T01:04:23;101926.13;;;7.74;100.00
6565;BME280;3316;44.118;27.258;2022-12-18T01:06:48;101930.44;;;7.72;100.00
6565;BME280;3316;44.118;27.258;2022-12-18T01:09:14;101926.13;;;7.75;100.00
6565;BME280;3316;44.118;27.258;2022-12-18T01:11:39;101934.16;;;7.83;100.00
6565;BME280;3316;44.118;27.258;2022-12-18T01:14:05;101918.38;;;7.80;100.00
6565;BME280;3316;44.118;27.258;2022-12-18T01:16:30;101929.50;;;7.68;100.00
6565;BME280;3316;44.118;27.258;2022-12-18T01:18:56;101936.72;;;7.80;100.00
6565;BME280;3316;44.118;27.258;2022-12-18T01:21:23;101955.28;;;7.90;100.00
6565;BME280;3316;44.118;27.258;2022-12-18T01:23:55;101955.41;;;7.96;100.00
6565;BME280;3316;44.118;27.258;2022-12-18T01:26:21;101979.63;;;7.85;100.00
6565;BME280;3316;44.118;27.258;2022-12-18T01:28:47;101977.03;;;7.86;100.00
6565;BME280;3316;44.118;27.258;2022-12-18T01:31:21;101976.38;;;7.96;100.00
6565;BME280;3316;44.118;27.258;2022-12-18T01:33:47;101964.84;;;7.88;100.00
6565;BME280;3316;44.118;27.258;2022-12-18T01:36:33;101978.47;;;7.72;100.00
6565;BME280;3316;44.118;27.258;2022-12-18T01:39:05;101977.19;;;7.55;100.00
6565;BME280;3316;44.118;27.258;2022-12-18T01:41:32;101992.84;;;7.52;100.00
6565;BME280;3316;44.118;27.258;2022-12-18T01:47:38;101990.13;;;7.49;100.00
6565;BME280;3316;44.118;27.258;2022-12-18T01:50:10;101980.25;;;7.38;100.00
6565;BME280;3316;44.118;27.258;2022-12-18T01:52:37;101993.47;;;7.42;100.00
6565;BME280;3316;44.118;27.258;2022-12-18T01:55:07;101978.72;;;7.46;100.00
6565;BME280;3316;44.118;27.258;2022-12-18T01:57:33;101986.53;;;7.44;100.00
6565;BME280;3316;44.118;27.258;2022-12-18T02:00:01;102001.44;;;7.47;100.00
6565;BME280;3316;44.118;27.258;2022-12-18T02:02:28;101989.91;;;7.39;100.00
6565;BME280;3316;44.118;27.258;2022-12-18T02:04:54;101971.13;;;7.20;100.00
6565;BME280;3316;44.118;27.258;2022-12-18T02:15:38;102010.31;;;7.17;100.00
6565;BME280;3316;44.118;27.258;2022-12-18T02:18:11;102015.34;;;7.10;100.00
6565;BME280;3316;44.118;27.258;2022-12-18T02:20:49;102010.25;;;7.16;100.00
6565;BME280;3316;44.118;27.258;2022-12-18T02:26:15;102030.84;;;7.02;100.00
6565;BME280;3316;44.118;27.258;2022-12-18T02:28:52;102023.91;;;7.04;100.00
6565;BME280;3316;44.118;27.258;2022-12-18T02:31:24;102022.72;;;6.92;100.00
6565;BME280;3316;44.118;27.258;2022-12-18T02:33:53;102041.72;;;6.85;100.00
6565;BME280;3316;44.118;27.258;2022-12-18T02:36:22;102047.06;;;6.89;100.00
6565;BME280;3316;44.118;27.258;2022-12-18T02:38:49;102041.97;;;6.94;100.00
6565;BME280;3316;44.118;27.258;2022-12-18T02:41:17;102042.06;;;6.98;100.00
6565;BME280;3316;44.118;27.258;2022-12-18T02:43:48;102048.38;;;7.05;100.00
6565;BME280;3316;44.118;27.258;2022-12-18T02:46:44;102055.16;;;6.98;100.00
6565;BME280;3316;44.118;27.258;2022-12-18T02:49:44;102061.41;;;7.03;100.00
6565;BME280;3316;44.118;27.258;2022-12-18T02:55:05;102070.69;;;6.92;100.00
6565;BME280;3316;44.118;27.258;2022-12-18T02:57:36;102083.84;;;6.94;100.00
6565;BME280;3316;44.118;27.258;2022-12-18T03:00:10;102069.69;;;6.87;100.00
6565;BME280;3316;44.118;27.258;2022-12-18T03:05:31;102062.47;;;6.79;100.00
6565;BME280;3316;44.118;27.258;2022-12-18T03:08:10;102095.66;;;6.80;100.00
6565;BME280;3316;44.118;27.258;2022-12-18T03:10:42;102109.88;;;6.89;100.00
6565;BME280;3316;44.118;27.258;2022-12-18T03:13:15;102115.13;;;6.91;100.00
6565;BME280;3316;44.118;27.258;2022-12-18T03:15:45;102127.47;;;6.95;100.00
6565;BME280;3316;44.118;27.258;2022-12-18T03:18:16;102066.34;;;6.62;100.00
6565;BME280;3316;44.118;27.258;2022-12-18T03:20:44;102123.94;;;6.94;100.00
6565;BME280;3316;44.118;27.258;2022-12-18T03:23:17;102151.59;;;6.85;100.00
6565;BME280;3316;44.118;27.258;2022-12-18T03:25:44;102149.69;;;6.79;100.00
6565;BME280;3316;44.118;27.258;2022-12-18T03:28:18;102149.91;;;6.87;100.00
6565;BME280;3316;44.118;27.258;2022-12-18T03:30:46;102158.66;;;6.87;100.00
6565;BME280;3316;44.118;27.258;2022-12-18T03:33:19;102157.16;;;6.67;100.00
6565;BME280;3316;44.118;27.258;2022-12-18T03:35:47;102169.19;;;6.61;100.00
6565;BME280;3316;44.118;27.258;2022-12-18T03:38:13;102169.25;;;6.62;100.00
6565;BME280;3316;44.118;27.258;2022-12-18T03:40:47;102174.31;;;6.58;100.00
6565;BME280;3316;44.118;27.258;2022-12-18T03:43:26;102172.53;;;6.55;100.00
6565;BME280;3316;44.118;27.258;2022-12-18T03:46:07;102179.56;;;6.58;100.00
6565;BME280;3316;44.118;27.258;2022-12-18T03:52:08;102190.44;;;6.43;100.00
6565;BME280;3316;44.118;27.258;2022-12-18T03:54:35;102211.44;;;6.46;100.00
6565;BME280;3316;44.118;27.258;2022-12-18T03:57:15;102209.22;;;6.58;100.00
6565;BME280;3316;44.118;27.258;2022-12-18T03:59:43;102212.50;;;6.51;100.00
6565;BME280;3316;44.118;27.258;2022-12-18T04:02:11;102226.16;;;6.43;100.00
6565;BME280;3316;44.118;27.258;2022-12-18T04:04:37;102236.22;;;6.57;100.00
6565;BME280;3316;44.118;27.258;2022-12-18T04:07:04;102250.81;;;6.51;100.00
6565;BME280;3316;44.118;27.258;2022-12-18T04:09:30;102252.53;;;6.50;100.00
6565;BME280;3316;44.118;27.258;2022-12-18T04:11:57;102206.19;;;6.18;100.00
6565;BME280;3316;44.118;27.258;2022-12-18T04:14:22;102257.56;;;6.44;100.00
6565;BME280;3316;44.118;27.258;2022-12-18T04:16:47;102248.59;;;6.36;100.00
6565;BME280;3316;44.118;27.258;2022-12-18T04:19:13;102264.56;;;6.44;100.00
6565;BME280;3316;44.118;27.258;2022-12-18T04:21:38;102269.16;;;6.25;100.00
6565;BME280;3316;44.118;27.258;2022-12-18T04:24:04;102270.72;;;6.20;100.00
6565;BME280;3316;44.118;27.258;2022-12-18T04:26:30;102274.88;;;6.14;100.00
6565;BME280;3316;44.118;27.258;2022-12-18T04:28:55;102258.66;;;5.99;100.00
6565;BME280;3316;44.118;27.258;2022-12-18T04:31:21;102271.38;;;6.13;100.00
6565;BME280;3316;44.118;27.258;2022-12-18T04:33:46;102269.75;;;6.17;100.00
6565;BME280;3316;44.118;27.258;2022-12-18T04:36:12;102279.97;;;6.11;100.00
6565;BME280;3316;44.118;27.258;2022-12-18T04:38:37;102276.34;;;6.06;100.00
6565;BME280;3316;44.118;27.258;2022-12-18T04:41:03;102281.34;;;6.00;100.00
6565;BME280;3316;44.118;27.258;2022-12-18T04:43:28;102288.47;;;5.80;100.00
6565;BME280;3316;44.118;27.258;2022-12-18T04:46:04;102293.81;;;5.83;100.00
6565;BME280;3316;44.118;27.258;2022-12-18T04:48:29;102257.09;;;5.55;100.00
6565;BME280;3316;44.118;27.258;2022-12-18T04:50:55;102301.25;;;5.73;100.00
6565;BME280;3316;44.118;27.258;2022-12-18T04:53:20;102302.06;;;5.72;100.00
6565;BME280;3316;44.118;27.258;2022-12-18T04:55:46;102303.47;;;5.62;100.00
6565;BME280;3316;44.118;27.258;2022-12-18T04:58:11;102307.88;;;5.63;100.00
6565;BME280;3316;44.118;27.258;2022-12-18T05:00:37;102306.66;;;5.54;100.00
6565;BME280;3316;44.118;27.258;2022-12-18T05:03:02;102321.44;;;5.53;100.00
6565;BME280;3316;44.118;27.258;2022-12-18T05:05:28;102324.03;;;5.53;100.00
6565;BME280;3316;44.118;27.258;2022-12-18T05:07:53;102333.34;;;5.47;100.00
6565;BME280;3316;44.118;27.258;2022-12-18T05:10:19;102287.66;;;5.34;100.00
6565;BME280;3316;44.118;27.258;2022-12-18T05:12:44;102335.88;;;5.67;100.00
6565;BME280;3316;44.118;27.258;2022-12-18T05:15:29;102259.88;;;5.12;100.00
6565;BME280;3316;44.118;27.258;2022-12-18T05:17:55;102338.25;;;5.61;100.00
6565;BME280;3316;44.118;27.258;2022-12-18T05:20:21;102332.81;;;5.55;100.00
6565;BME280;3316;44.118;27.258;2022-12-18T05:22:46;102313.41;;;5.49;100.00
6565;BME280;3316;44.118;27.258;2022-12-18T05:25:12;102343.59;;;5.64;100.00
6565;BME280;3316;44.118;27.258;2022-12-18T05:27:37;102352.81;;;5.55;100.00
6565;BME280;3316;44.118;27.258;2022-12-18T05:30:03;102356.03;;;5.48;100.00
6565;BME280;3316;44.118;27.258;2022-12-18T05:32:29;102343.75;;;5.45;100.00
6565;BME280;3316;44.118;27.258;2022-12-18T05:34:54;102360.34;;;5.47;100.00
6565;BME280;3316;44.118;27.258;2022-12-18T05:37:19;102375.13;;;5.47;100.00
6565;BME280;3316;44.118;27.258;2022-12-18T05:39:45;102356.22;;;5.30;100.00
6565;BME280;3316;44.118;27.258;2022-12-18T05:42:11;102379.09;;;5.37;100.00
6565;BME280;3316;44.118;27.258;2022-12-18T05:44:36;102373.13;;;5.39;100.00
6565;BME280;3316;44.118;27.258;2022-12-18T05:47:02;102370.09;;;5.29;100.00
6565;BME280;3316;44.118;27.258;2022-12-18T05:49:27;102386.69;;;5.31;100.00
6565;BME280;3316;44.118;27.258;2022-12-18T05:51:52;102384.00;;;5.28;100.00
6565;BME280;3316;44.118;27.258;2022-12-18T05:54:18;102375.22;;;5.26;100.00
6565;BME280;3316;44.118;27.258;2022-12-18T05:56:43;102385.75;;;5.29;100.00
6565;BME280;3316;44.118;27.258;2022-12-18T05:59:09;102350.34;;;5.13;100.00
6565;BME280;3316;44.118;27.258;2022-12-18T06:01:34;102403.38;;;5.34;100.00
6565;BME280;3316;44.118;27.258;2022-12-18T06:04:00;102377.75;;;5.24;100.00
6565;BME280;3316;44.118;27.258;2022-12-18T06:06:27;102370.03;;;5.27;100.00
6565;BME280;3316;44.118;27.258;2022-12-18T06:08:53;102391.22;;;5.35;100.00
6565;BME280;3316;44.118;27.258;2022-12-18T06:11:21;102396.19;;;5.29;100.00
6565;BME280;3316;44.118;27.258;2022-12-18T06:13:50;102417.22;;;5.32;100.00
6565;BME280;3316;44.118;27.258;2022-12-18T06:16:16;102418.22;;;5.35;100.00
6565;BME280;3316;44.118;27.258;2022-12-18T06:18:41;102413.69;;;5.31;100.00
6565;BME280;3316;44.118;27.258;2022-12-18T06:21:07;102433.34;;;5.44;100.00
6565;BME280;3316;44.118;27.258;2022-12-18T06:23:32;102424.25;;;5.34;100.00
6565;BME280;3316;44.118;27.258;2022-12-18T06:25:58;102431.31;;;5.37;100.00
6565;BME280;3316;44.118;27.258;2022-12-18T06:28:23;102434.38;;;5.27;100.00
6565;BME280;3316;44.118;27.258;2022-12-18T06:30:49;102445.25;;;5.37;100.00
6565;BME280;3316;44.118;27.258;2022-12-18T06:33:15;102446.16;;;5.38;100.00
6565;BME280;3316;44.118;27.258;2022-12-18T06:35:41;102450.53;;;5.39;100.00
6565;BME280;3316;44.118;27.258;2022-12-18T06:38:07;102456.47;;;5.35;100.00
6565;BME280;3316;44.118;27.258;2022-12-18T06:40:33;102455.09;;;5.44;100.00
6565;BME280;3316;44.118;27.258;2022-12-18T06:42:58;102451.78;;;5.49;100.00
6565;BME280;3316;44.118;27.258;2022-12-18T06:45:24;102462.47;;;5.55;100.00
6565;BME280;3316;44.118;27.258;2022-12-18T06:47:49;102465.78;;;5.51;100.00
6565;BME280;3316;44.118;27.258;2022-12-18T06:50:15;102464.69;;;5.44;100.00
6565;BME280;3316;44.118;27.258;2022-12-18T06:52:40;102431.97;;;5.31;100.00
6565;BME280;3316;44.118;27.258;2022-12-18T06:55:08;102462.13;;;5.46;100.00
6565;BME280;3316;44.118;27.258;2022-12-18T06:57:33;102472.81;;;5.52;100.00
6565;BME280;3316;44.118;27.258;2022-12-18T06:59:59;102477.47;;;5.60;100.00
6565;BME280;3316;44.118;27.258;2022-12-18T07:02:25;102479.53;;;5.67;100.00
6565;BME280;3316;44.118;27.258;2022-12-18T07:04:50;102482.00;;;5.64;100.00
6565;BME280;3316;44.118;27.258;2022-12-18T07:07:16;102495.84;;;5.62;100.00
6565;BME280;3316;44.118;27.258;2022-12-18T07:09:41;102477.25;;;5.54;100.00
6565;BME280;3316;44.118;27.258;2022-12-18T07:12:07;102489.81;;;5.64;100.00
6565;BME280;3316;44.118;27.258;2022-12-18T07:14:33;102512.63;;;5.89;100.00
6565;BME280;3316;44.118;27.258;2022-12-18T07:16:58;102522.22;;;5.90;100.00
6565;BME280;3316;44.118;27.258;2022-12-18T07:19:24;102479.22;;;5.60;100.00
6565;BME280;3316;44.118;27.258;2022-12-18T07:21:50;102537.50;;;5.81;100.00
6565;BME280;3316;44.118;27.258;2022-12-18T07:24:15;102545.63;;;5.87;100.00
6565;BME280;3316;44.118;27.258;2022-12-18T07:26:41;102503.84;;;5.66;100.00
6565;BME280;3316;44.118;27.258;2022-12-18T07:29:06;102536.41;;;5.96;100.00
6565;BME280;3316;44.118;27.258;2022-12-18T07:31:32;102554.06;;;6.02;100.00
6565;BME280;3316;44.118;27.258;2022-12-18T07:33:57;102559.13;;;5.99;100.00
6565;BME280;3316;44.118;27.258;2022-12-18T07:36:23;102568.88;;;6.03;100.00
6565;BME280;3316;44.118;27.258;2022-12-18T07:38:49;102562.25;;;5.89;100.00
6565;BME280;3316;44.118;27.258;2022-12-18T07:41:14;102572.50;;;5.84;100.00
6565;BME280;3316;44.118;27.258;2022-12-18T07:43:41;102582.97;;;5.84;100.00
6565;BME280;3316;44.118;27.258;2022-12-18T07:46:07;102576.31;;;5.72;100.00
6565;BME280;3316;44.118;27.258;2022-12-18T07:48:33;102569.19;;;5.68;100.00
6565;BME280;3316;44.118;27.258;2022-12-18T07:51:03;102579.63;;;5.68;100.00
6565;BME280;3316;44.118;27.258;2022-12-18T07:53:30;102595.53;;;5.74;100.00
6565;BME280;3316;44.118;27.258;2022-12-18T07:55:57;102579.91;;;5.53;100.00
6565;BME280;3316;44.118;27.258;2022-12-18T07:58:22;102604.97;;;5.70;100.00
6565;BME280;3316;44.118;27.258;2022-12-18T08:00:48;102572.06;;;5.53;100.00
6565;BME280;3316;44.118;27.258;2022-12-18T08:03:13;102613.91;;;5.75;100.00
6565;BME280;3316;44.118;27.258;2022-12-18T08:05:39;102620.25;;;5.82;100.00
6565;BME280;3316;44.118;27.258;2022-12-18T08:08:04;102626.53;;;5.85;100.00
6565;BME280;3316;44.118;27.258;2022-12-18T08:10:30;102621.91;;;5.80;100.00
6565;BME280;3316;44.118;27.258;2022-12-18T08:12:55;102640.19;;;5.80;100.00
6565;BME280;3316;44.118;27.258;2022-12-18T08:15:20;102642.72;;;5.77;100.00
6565;BME280;3316;44.118;27.258;2022-12-18T08:17:46;102652.66;;;5.85;100.00
6565;BME280;3316;44.118;27.258;2022-12-18T08:20:12;102642.72;;;5.77;100.00
6565;BME280;3316;44.118;27.258;2022-12-18T08:22:40;102652.25;;;5.76;100.00
6565;BME280;3316;44.118;27.258;2022-12-18T08:25:06;102660.22;;;5.79;100.00
6565;BME280;3316;44.118;27.258;2022-12-18T08:27:32;102635.69;;;5.55;100.00
6565;BME280;3316;44.118;27.258;2022-12-18T08:29:57;102664.41;;;5.76;100.00
6565;BME280;3316;44.118;27.258;2022-12-18T08:32:24;102664.91;;;5.86;100.00
6565;BME280;3316;44.118;27.258;2022-12-18T08:34:50;102615.78;;;5.57;100.00
6565;BME280;3316;44.118;27.258;2022-12-18T08:37:15;102662.22;;;5.85;100.00
6565;BME280;3316;44.118;27.258;2022-12-18T08:39:41;102641.69;;;5.73;100.00
6565;BME280;3316;44.118;27.258;2022-12-18T08:42:06;102659.38;;;5.80;100.00
6565;BME280;3316;44.118;27.258;2022-12-18T08:44:50;102640.47;;;5.65;100.00
6565;BME280;3316;44.118;27.258;2022-12-18T08:47:16;102646.66;;;5.67;100.00
6565;BME280;3316;44.118;27.258;2022-12-18T08:49:41;102659.38;;;5.80;100.00
6565;BME280;3316;44.118;27.258;2022-12-18T08:52:06;102649.63;;;5.76;100.00
6565;BME280;3316;44.118;27.258;2022-12-18T08:54:32;102653.84;;;5.73;100.00
6565;BME280;3316;44.118;27.258;2022-12-18T08:56:57;102616.16;;;5.46;100.00
6565;BME280;3316;44.118;27.258;2022-12-18T08:59:23;102657.28;;;5.72;100.00
6565;BME280;3316;44.118;27.258;2022-12-18T09:01:48;102647.38;;;5.63;100.00
6565;BME280;3316;44.118;27.258;2022-12-18T09:04:14;102638.56;;;5.61;100.00
6565;BME280;3316;44.118;27.258;2022-12-18T09:06:40;102667.56;;;5.88;100.00
6565;BME280;3316;44.118;27.258;2022-12-18T09:09:06;102658.50;;;5.80;100.00
6565;BME280;3316;44.118;27.258;2022-12-18T09:11:33;102659.06;;;5.73;100.00
6565;BME280;3316;44.118;27.258;2022-12-18T09:14:00;102672.41;;;5.79;100.00
6565;BME280;3316;44.118;27.258;2022-12-18T09:16:28;102664.50;;;5.77;100.00
6565;BME280;3316;44.118;27.258;2022-12-18T09:18:57;102665.00;;;5.69;100.00
6565;BME280;3316;44.118;27.258;2022-12-18T09:21:26;102666.06;;;5.53;100.00
6565;BME280;3316;44.118;27.258;2022-12-18T09:23:53;102675.19;;;5.63;100.00
6565;BME280;3316;44.118;27.258;2022-12-18T09:26:20;102659.97;;;5.53;100.00
6565;BME280;3316;44.118;27.258;2022-12-18T09:28:46;102674.53;;;5.68;100.00
6565;BME280;3316;44.118;27.258;2022-12-18T09:31:15;102680.31;;;5.60;100.00
6565;BME280;3316;44.118;27.258;2022-12-18T09:33:42;102681.53;;;5.49;100.00
6565;BME280;3316;44.118;27.258;2022-12-18T09:36:10;102661.44;;;5.46;100.00
6565;BME280;3316;44.118;27.258;2022-12-18T09:38:36;102689.53;;;5.52;100.00
6565;BME280;3316;44.118;27.258;2022-12-18T09:44:39;102693.72;;;5.69;100.00
6565;BME280;3316;44.118;27.258;2022-12-18T09:47:33;102677.72;;;5.82;100.00
6565;BME280;3316;44.118;27.258;2022-12-18T09:49:58;102699.19;;;5.94;100.00
6565;BME280;3316;44.118;27.258;2022-12-18T09:52:35;102663.47;;;5.74;100.00
6565;BME280;3316;44.118;27.258;2022-12-18T09:55:22;102697.22;;;5.88;100.00
6565;BME280;3316;44.118;27.258;2022-12-18T09:57:53;102705.84;;;5.87;100.00
6565;BME280;3316;44.118;27.258;2022-12-18T10:00:22;102702.59;;;5.72;100.00
6565;BME280;3316;44.118;27.258;2022-12-18T10:02:49;102698.50;;;5.79;100.00
6565;BME280;3316;44.118;27.258;2022-12-18T10:08:24;102692.88;;;5.89;100.00
6565;BME280;3316;44.118;27.258;2022-12-18T10:10:58;102699.13;;;5.92;100.00
6565;BME280;3316;44.118;27.258;2022-12-18T10:13:41;102696.69;;;5.97;100.00
6565;BME280;3316;44.118;27.258;2022-12-18T10:22:10;102694.56;;;6.09;100.00
6565;BME280;3316;44.118;27.258;2022-12-18T10:27:28;102693.06;;;6.14;100.00
6565;BME280;3316;44.118;27.258;2022-12-18T10:29:54;102702.00;;;6.20;100.00
6565;BME280;3316;44.118;27.258;2022-12-18T10:32:23;102706.28;;;6.18;100.00
6565;BME280;3316;44.118;27.258;2022-12-18T10:34:51;102709.53;;;6.13;100.00
6565;BME280;3316;44.118;27.258;2022-12-18T10:37:19;102708.66;;;6.12;100.00
6565;BME280;3316;44.118;27.258;2022-12-18T10:39:46;102704.38;;;6.14;100.00
6565;BME280;3316;44.118;27.258;2022-12-18T10:42:19;102701.13;;;6.20;100.00
6565;BME280;3316;44.118;27.258;2022-12-18T10:44:45;102698.53;;;6.20;100.00
6565;BME280;3316;44.118;27.258;2022-12-18T10:47:15;102704.16;;;6.30;100.00
6565;BME280;3316;44.118;27.258;2022-12-18T10:49:51;102703.59;;;6.38;100.00
6565;BME280;3316;44.118;27.258;2022-12-18T10:52:21;102702.69;;;6.37;100.00
6565;BME280;3316;44.118;27.258;2022-12-18T10:54:53;102702.69;;;6.37;100.00
6565;BME280;3316;44.118;27.258;2022-12-18T10:57:34;102693.38;;;6.44;100.00
6565;BME280;3316;44.118;27.258;2022-12-18T11:00:33;102695.16;;;6.45;100.00
6565;BME280;3316;44.118;27.258;2022-12-18T11:03:01;102692.06;;;6.55;100.00
6565;BME280;3316;44.118;27.258;2022-12-18T11:05:30;102706.03;;;6.55;100.00
6565;BME280;3316;44.118;27.258;2022-12-18T11:07:57;102701.00;;;6.61;100.00
6565;BME280;3316;44.118;27.258;2022-12-18T11:10:32;102711.84;;;6.70;100.00
6565;BME280;3316;44.118;27.258;2022-12-18T11:13:19;102719.13;;;6.79;100.00
6565;BME280;3316;44.118;27.258;2022-12-18T11:15:45;102683.97;;;6.49;100.00
6565;BME280;3316;44.118;27.258;2022-12-18T11:23:26;102721.56;;;6.73;100.00
6565;BME280;3316;44.118;27.258;2022-12-18T11:25:55;102731.28;;;6.77;100.00
6565;BME280;3316;44.118;27.258;2022-12-18T11:28:43;102720.38;;;6.65;100.00
6565;BME280;3316;44.118;27.258;2022-12-18T11:33:40;102738.19;;;6.75;100.00
6565;BME280;3316;44.118;27.258;2022-12-18T11:36:09;102735.41;;;6.70;100.00
6565;BME280;3316;44.118;27.258;2022-12-18T11:38:37;102725.22;;;6.78;100.00
6565;BME280;3316;44.118;27.258;2022-12-18T11:41:27;102735.94;;;6.84;100.00
6565;BME280;3316;44.118;27.258;2022-12-18T11:44:17;102736.94;;;6.87;100.00
6565;BME280;3316;44.118;27.258;2022-12-18T11:46:52;102714.66;;;6.75;100.00
6565;BME280;3316;44.118;27.258;2022-12-18T11:49:34;102725.22;;;6.78;100.00
6565;BME280;3316;44.118;27.258;2022-12-18T11:52:27;102755.56;;;6.73;100.00
6565;BME280;3316;44.118;27.258;2022-12-18T11:54:58;102748.94;;;6.60;100.00
6565;BME280;3316;44.118;27.258;2022-12-18T11:57:39;102762.25;;;6.44;100.00
6565;BME280;3316;44.118;27.258;2022-12-18T12:00:19;102759.34;;;6.16;100.00
6565;BME280;3316;44.118;27.258;2022-12-18T12:03:21;102759.00;;;6.29;100.00
6565;BME280;3316;44.118;27.258;2022-12-18T12:06:32;102764.84;;;6.22;100.00
6565;BME280;3316;44.118;27.258;2022-12-18T12:08:49;102773.13;;;6.12;100.00
6565;BME280;3316;44.118;27.258;2022-12-18T12:14:08;102778.56;;;6.39;100.00
6565;BME280;3316;44.118;27.258;2022-12-18T12:22:10;102785.88;;;6.68;100.00
6565;BME280;3316;44.118;27.258;2022-12-18T12:30:11;102771.91;;;6.89;100.00
6565;BME280;3316;44.118;27.258;2022-12-18T12:40:06;102745.69;;;6.23;100.00
6565;BME280;3316;44.118;27.258;2022-12-18T12:42:39;102786.72;;;6.46;100.00
6565;BME280;3316;44.118;27.258;2022-12-18T12:45:39;102792.22;;;5.90;100.00
6565;BME280;3316;44.118;27.258;2022-12-18T12:48:16;102805.94;;;5.85;100.00
6565;BME280;3316;44.118;27.258;2022-12-18T12:50:43;102785.84;;;5.84;100.00
6565;BME280;3316;44.118;27.258;2022-12-18T12:53:19;102771.28;;;5.51;100.00
6565;BME280;3316;44.118;27.258;2022-12-18T12:55:46;102816.00;;;5.58;100.00
6565;BME280;3316;44.118;27.258;2022-12-18T12:58:36;102824.63;;;5.56;100.00
6565;BME280;3316;44.118;27.258;2022-12-18T13:06:08;102826.84;;;5.29;100.00
6565;BME280;3316;44.118;27.258;2022-12-18T13:09:00;102818.75;;;5.23;100.00
6565;BME280;3316;44.118;27.258;2022-12-18T13:11:43;102840.09;;;5.14;100.00
6565;BME280;3316;44.118;27.258;2022-12-18T13:14:35;102845.97;;;5.28;100.00
6565;BME280;3316;44.118;27.258;2022-12-18T13:17:26;102837.81;;;5.03;100.00
6565;BME280;3316;44.118;27.258;2022-12-18T13:20:14;102846.75;;;5.08;100.00
6565;BME280;3316;44.118;27.258;2022-12-18T13:22:46;102853.97;;;4.96;100.00
6565;BME280;3316;44.118;27.258;2022-12-18T13:25:31;102855.91;;;5.00;100.00
6565;BME280;3316;44.118;27.258;2022-12-18T13:35:40;102869.22;;;4.69;100.00
6565;BME280;3316;44.118;27.258;2022-12-18T13:40:57;102888.56;;;4.74;100.00
6565;BME280;3316;44.118;27.258;2022-12-18T13:43:28;102882.78;;;4.62;100.00
6565;BME280;3316;44.118;27.258;2022-12-18T13:48:57;102902.13;;;4.67;100.00
6565;BME280;3316;44.118;27.258;2022-12-18T13:51:24;102907.28;;;4.83;100.00
6565;BME280;3316;44.118;27.258;2022-12-18T13:53:58;102926.06;;;4.94;100.00
6565;BME280;3316;44.118;27.258;2022-12-18T13:56:30;102927.47;;;4.70;100.00
6565;BME280;3316;44.118;27.258;2022-12-18T14:01:33;102933.88;;;4.94;100.00
6565;BME280;3316;44.118;27.258;2022-12-18T14:04:12;102928.22;;;4.85;100.00
6565;BME280;3316;44.118;27.258;2022-12-18T14:06:44;102925.09;;;4.92;100.00
6565;BME280;3316;44.118;27.258;2022-12-18T14:09:14;102934.00;;;4.95;100.00
6565;BME280;3316;44.118;27.258;2022-12-18T14:11:40;102942.25;;;4.87;100.00
6565;BME280;3316;44.118;27.258;2022-12-18T14:14:14;102945.06;;;4.74;100.00
6565;BME280;3316;44.118;27.258;2022-12-18T14:16:41;102944.91;;;4.71;100.00
6565;BME280;3316;44.118;27.258;2022-12-18T14:19:12;102959.06;;;4.58;100.00
6565;BME280;3316;44.118;27.258;2022-12-18T14:21:40;102952.63;;;4.51;100.00
6565;BME280;3316;44.118;27.258;2022-12-18T14:24:16;102966.94;;;4.60;100.00
6565;BME280;3316;44.118;27.258;2022-12-18T14:26:42;102957.38;;;4.42;100.00
6565;BME280;3316;44.118;27.258;2022-12-18T14:29:27;102975.53;;;4.41;100.00
6565;BME280;3316;44.118;27.258;2022-12-18T14:34:41;102974.41;;;4.36;100.00
6565;BME280;3316;44.118;27.258;2022-12-18T14:37:10;102978.31;;;4.28;100.00
6565;BME280;3316;44.118;27.258;2022-12-18T14:39:36;102971.22;;;4.25;100.00
6565;BME280;3316;44.118;27.258;2022-12-18T14:42:02;102993.63;;;4.38;100.00
6565;BME280;3316;44.118;27.258;2022-12-18T14:44:27;103006.41;;;4.33;100.00